Time;durP1;ratioP1;P1;durP2;ratioP2;P2;SDS_P1;SDS_P2;PMS_P1;PMS_P2;Temp;Humidity;BMP_temperature;BMP_pressure;BME280_temperature;BME280_humidity;BME280_pressure;Samples;Min_cycle;Max_cycle;Signal;HPM_P1;HPM_P2
2020/12/20 00:00:50;;;;;;;44.97;29.87;;;0.50;99.90;;;-2.32;100.00;100953.34;5009724;27;101388;-66
2020/12/20 00:03:16;;;;;;;39.67;27.47;;;-0.60;99.90;;;-2.29;100.00;100958.50;5004421;27;100184;-66
2020/12/20 00:05:44;;;;;;;40.03;27.10;;;0.20;99.90;;;-2.41;100.00;100961.59;5018621;27;101247;-66
2020/12/20 00:08:11;;;;;;;38.07;27.87;;;-0.60;99.90;;;-2.48;100.00;100980.25;5024587;27;100924;-66
2020/12/20 00:10:38;;;;;;;40.50;29.10;;;-0.50;99.90;;;-2.59;100.00;101012.91;5023685;27;101886;-66
2020/12/20 00:13:04;;;;;;;37.83;26.80;;;-0.50;99.90;;;-2.68;100.00;101023.75;5024130;27;100051;-65
2020/12/20 00:15:31;;;;;;;35.93;25.00;;;0.10;99.90;;;-2.39;100.00;101030.53;5024029;27;100094;-66
2020/12/20 00:17:58;;;;;;;37.93;26.63;;;-0.50;99.90;;;-2.44;100.00;101024.59;5024283;27;101235;-64
2020/12/20 00:20:25;;;;;;;34.90;25.73;;;-0.40;99.90;;;-2.53;100.00;101023.19;5012289;27;100687;-65
2020/12/20 00:22:52;;;;;;;39.43;26.63;;;-0.40;99.90;;;-2.52;100.00;101021.41;5003774;27;100002;-67
2020/12/20 00:25:19;;;;;;;35.93;26.30;;;-1.10;99.90;;;-2.36;100.00;101019.94;5003846;27;100759;-64
2020/12/20 00:27:48;;;;;;;38.80;26.93;;;-0.40;99.90;;;-2.71;100.00;101020.38;5002950;27;101926;-66
2020/12/20 00:30:14;;;;;;;35.63;24.83;;;-0.40;99.90;;;-2.53;100.00;101017.94;5003050;27;101856;-65
2020/12/20 00:32:41;;;;;;;33.33;24.47;;;-0.50;99.90;;;-2.62;100.00;101018.31;5010418;27;100103;-67
2020/12/20 00:35:08;;;;;;;32.33;22.83;;;-0.40;99.90;;;-2.68;100.00;101023.75;5023833;27;100636;-65
2020/12/20 00:37:35;;;;;;;38.23;26.60;;;-0.50;99.90;;;-2.73;100.00;101023.09;5024161;27;101716;-66
2020/12/20 00:40:04;;;;;;;38.27;25.87;;;-1.30;99.90;;;-2.70;100.00;101019.47;5023259;27;100921;-66
2020/12/20 00:42:31;;;;;;;33.37;24.03;;;-0.50;99.90;;;-2.70;100.00;101030.81;5023810;27;99954;-65
2020/12/20 00:44:58;;;;;;;30.30;22.80;;;-0.70;99.90;;;-2.80;100.00;101036.44;5022994;27;100126;-66
2020/12/20 00:47:25;;;;;;;35.05;24.80;;;-0.50;99.90;;;-2.83;100.00;101036.53;5003856;27;100838;-65
2020/12/20 00:49:52;;;;;;;34.77;25.37;;;-0.60;99.90;;;-2.78;100.00;101025.00;5006938;27;100454;-64
2020/12/20 00:52:18;;;;;;;35.07;25.20;;;-0.70;99.90;;;-2.69;100.00;101027.28;5006587;27;100131;-66
2020/12/20 00:54:45;;;;;;;31.50;22.00;;;0.60;99.90;;;-2.78;100.00;101035.47;5005224;27;100483;-64
2020/12/20 00:57:14;;;;;;;36.23;24.33;;;-0.70;99.90;;;-2.94;100.00;101043.03;5004343;27;103334;-66
2020/12/20 00:59:41;;;;;;;34.77;25.47;;;-0.60;99.90;;;-2.60;100.00;101045.31;5006477;27;100505;-64
2020/12/20 01:02:08;;;;;;;35.63;25.87;;;-0.70;99.90;;;-2.97;100.00;101044.91;5026616;27;100305;-66
2020/12/20 01:04:35;;;;;;;37.57;25.30;;;-0.80;99.90;;;-2.87;100.00;101045.44;5027169;27;100206;-64
2020/12/20 01:07:02;;;;;;;33.00;23.80;;;-0.60;99.90;;;-2.75;100.00;101045.00;5027237;27;99923;-66
2020/12/20 01:09:32;;;;;;;35.50;24.63;;;-0.80;99.90;;;-2.90;100.00;101042.00;5026977;27;100979;-66
2020/12/20 01:12:01;;;;;;;35.40;24.87;;;-0.80;99.90;;;-2.89;100.00;101040.25;5024808;27;100194;-64
2020/12/20 01:15:06;;;;;;;37.57;26.40;;;-0.80;99.90;;;-2.89;100.00;101050.72;5024953;27;100130;-65
2020/12/20 01:17:39;;;;;;;38.27;27.20;;;-0.30;99.90;;;-2.59;100.00;101046.13;5024256;27;102491;-65
2020/12/20 01:20:10;;;;;;;39.53;27.03;;;-0.90;99.90;;;-2.32;100.00;101042.47;5013674;27;102163;-64
2020/12/20 01:22:36;;;;;;;36.17;24.97;;;-0.90;99.90;;;-2.30;100.00;101038.03;5004444;27;100253;-65
2020/12/20 01:25:05;;;;;;;37.47;24.60;;;-0.90;99.90;;;-2.37;100.00;101040.97;5004725;27;100382;-66
2020/12/20 01:27:32;;;;;;;40.17;26.67;;;-0.80;99.90;;;-2.40;100.00;101041.94;5004791;27;102802;-65
2020/12/20 01:29:59;;;;;;;40.60;26.87;;;-0.90;99.90;;;-2.32;100.00;101042.47;5021535;27;103092;-66
2020/12/20 01:32:28;;;;;;;43.90;28.43;;;-0.70;99.90;;;-1.93;100.00;101039.22;5021827;27;100152;-66
2020/12/20 01:35:09;;;;;;;45.07;27.73;;;-0.60;99.90;;;-2.00;100.00;101040.41;5004461;27;100208;-65
2020/12/20 01:37:47;;;;;;;41.30;27.70;;;-0.70;99.90;;;-1.51;100.00;101037.50;5013343;27;129979;-67
2020/12/20 01:40:17;;;;;;;47.20;29.33;;;-0.60;99.90;;;-1.39;100.00;101027.41;5024393;27;102235;-65
2020/12/20 01:42:57;;;;;;;46.40;29.37;;;-0.40;99.90;;;-1.01;100.00;101029.25;5025994;27;124268;-66
2020/12/20 01:45:30;;;;;;;49.23;30.30;;;0.70;99.90;;;-1.08;100.00;101031.28;5024758;27;100351;-65
2020/12/20 01:47:58;;;;;;;40.83;27.73;;;0.00;99.90;;;-1.14;100.00;101028.06;5019905;27;102196;-65
2020/12/20 01:50:26;;;;;;;42.03;27.80;;;0.10;99.90;;;-1.28;100.00;101031.28;5004127;27;102352;-67
2020/12/20 01:52:57;;;;;;;45.37;29.23;;;1.10;99.90;;;-1.24;100.00;101019.75;5004035;27;100177;-64
2020/12/20 01:55:25;;;;;;;43.07;28.00;;;0.10;99.90;;;-0.95;100.00;101022.84;5004758;27;100187;-66
2020/12/20 01:58:01;;;;;;;44.07;29.17;;;0.20;99.90;;;-0.89;100.00;101020.81;5003644;27;102511;-66
2020/12/20 02:00:39;;;;;;;39.13;26.93;;;0.30;99.90;;;-0.68;100.00;101026.88;5026671;27;102279;-66
2020/12/20 02:03:25;;;;;;;42.30;26.10;;;0.30;99.90;;;-0.65;100.00;101025.91;5004920;27;100215;-66
2020/12/20 02:05:55;;;;;;;38.93;27.40;;;0.40;99.90;;;-0.70;100.00;101020.84;5003727;27;100402;-65
2020/12/20 02:08:22;;;;;;;39.10;27.03;;;0.50;99.90;;;-0.79;100.00;101023.91;5003080;27;102511;-65
2020/12/20 02:11:11;;;;;;;40.07;26.37;;;0.40;99.90;;;-0.65;100.00;101015.41;5003346;27;102128;-67
2020/12/20 02:13:42;;;;;;;38.93;26.67;;;0.70;99.90;;;-0.66;100.00;101006.66;5003926;27;100291;-67
2020/12/20 02:16:12;;;;;;;38.90;25.33;;;0.70;99.90;;;-0.70;100.00;101009.47;5003502;27;100735;-68
2020/12/20 02:18:41;;;;;;;39.17;25.73;;;0.80;99.90;;;-0.62;100.00;101010.84;5038558;27;103210;-67
2020/12/20 02:21:14;;;;;;;36.50;25.60;;;0.80;99.90;;;-0.71;100.00;101011.25;5040591;27;102944;-67
2020/12/20 02:23:43;;;;;;;36.23;24.50;;;0.70;99.90;;;-0.74;100.00;101008.75;5023009;27;100432;-66
2020/12/20 02:26:12;;;;;;;38.90;26.70;;;0.90;99.90;;;-0.67;100.00;101010.19;5024279;27;100376;-66
2020/12/20 02:28:39;;;;;;;35.33;25.23;;;0.90;99.90;;;-0.80;100.00;101011.66;5040556;27;100215;-66
2020/12/20 02:31:11;;;;;;;32.23;22.23;;;0.80;99.90;;;-0.86;100.00;101004.91;5025367;27;101343;-64
2020/12/20 02:33:39;;;;;;;37.97;25.10;;;0.80;99.90;;;-0.99;100.00;101011.63;5022961;27;100102;-66
2020/12/20 02:36:07;;;;;;;32.47;21.80;;;0.40;99.90;;;-0.99;100.00;101006.38;5007906;27;100172;-65
2020/12/20 02:38:37;;;;;;;34.00;23.87;;;0.70;99.90;;;-1.05;100.00;101006.66;5018565;27;102255;-66
2020/12/20 02:41:16;;;;;;;35.33;24.23;;;0.70;99.90;;;-1.41;100.00;101006.47;5023147;27;102357;-64
2020/12/20 02:43:44;;;;;;;33.30;21.43;;;0.70;99.90;;;-1.40;100.00;100995.03;5023635;27;100498;-66
2020/12/20 02:46:16;;;;;;;33.27;23.17;;;0.40;99.90;;;-1.57;100.00;101003.63;5007838;27;100186;-66
2020/12/20 02:48:48;;;;;;;32.90;22.40;;;0.60;99.90;;;-1.75;100.00;101008.78;5004739;27;100343;-65
2020/12/20 02:51:15;;;;;;;33.30;23.03;;;0.50;99.90;;;-1.89;100.00;101012.81;5006002;27;101429;-65
2020/12/20 02:53:45;;;;;;;35.07;22.40;;;0.30;99.90;;;-1.94;100.00;101019.16;5005409;27;100042;-68
2020/12/20 02:56:19;;;;;;;34.07;23.07;;;0.30;99.90;;;-2.02;100.00;101023.84;5002851;27;100419;-66
2020/12/20 02:58:47;;;;;;;34.27;23.43;;;0.30;99.90;;;-2.07;100.00;101016.16;5002135;27;102818;-66
2020/12/20 03:01:22;;;;;;;34.37;24.40;;;0.10;99.90;;;-2.16;100.00;101016.53;5002404;27;101722;-66
2020/12/20 03:03:49;;;;;;;33.00;23.33;;;0.10;99.90;;;-2.22;100.00;101017.63;5015735;27;100121;-67
2020/12/20 03:06:17;;;;;;;32.07;23.00;;;0.00;99.90;;;-2.30;100.00;101010.97;5002869;27;100213;-66
2020/12/20 03:08:45;;;;;;;33.27;23.33;;;-0.10;99.90;;;-2.43;100.00;101007.09;5002713;27;102155;-66
2020/12/20 03:11:12;;;;;;;34.53;22.00;;;-0.10;99.90;;;-2.33;100.00;101004.06;5002433;27;102733;-65
2020/12/20 03:13:40;;;;;;;33.90;22.63;;;0.00;99.90;;;-2.26;100.00;100999.47;5005245;27;100332;-65
2020/12/20 03:16:07;;;;;;;31.17;21.97;;;-0.20;99.90;;;-2.26;100.00;100991.59;5005232;27;100163;-66
2020/12/20 03:18:37;;;;;;;35.73;23.07;;;-0.10;99.90;;;-2.18;100.00;100995.63;5004671;27;101791;-67
2020/12/20 03:21:06;;;;;;;31.07;21.13;;;-0.30;99.90;;;-2.11;100.00;100995.38;5007242;27;99996;-65
2020/12/20 03:23:53;;;;;;;35.17;22.67;;;-0.40;99.90;;;-2.24;100.00;101005.50;5004245;27;100137;-66
2020/12/20 03:26:31;;;;;;;28.93;20.53;;;-0.30;99.90;;;-2.04;100.00;101000.31;5003150;27;100236;-67
2020/12/20 03:29:24;;;;;;;33.10;21.97;;;-0.50;99.90;;;-2.31;100.00;101002.25;5001181;27;101109;-67
2020/12/20 03:32:05;;;;;;;35.33;20.83;;;-0.40;99.90;;;-2.35;100.00;101003.28;5021432;27;100200;-65
2020/12/20 03:34:47;;;;;;;34.00;23.80;;;-0.50;99.90;;;-2.61;100.00;101003.44;5002284;27;99972;-66
2020/12/20 03:37:20;;;;;;;34.40;23.27;;;-0.50;99.90;;;-2.61;100.00;100998.19;5020649;27;100216;-66
2020/12/20 03:40:10;;;;;;;33.60;21.87;;;-0.50;99.90;;;-2.66;100.00;100998.34;5002489;27;100581;-65
2020/12/20 03:42:38;;;;;;;31.33;21.17;;;-0.30;99.90;;;-2.59;100.00;100996.34;5002450;27;102699;-66
2020/12/20 03:45:05;;;;;;;34.40;22.10;;;-0.50;99.90;;;-2.72;100.00;100985.47;5013905;27;100170;-65
2020/12/20 03:47:32;;;;;;;29.53;21.17;;;-0.50;99.90;;;-2.71;100.00;100989.81;5022323;27;100478;-66
2020/12/20 03:50:01;;;;;;;31.17;22.47;;;-0.60;99.90;;;-2.84;100.00;100995.56;5038755;27;102757;-67
2020/12/20 03:52:29;;;;;;;34.40;22.80;;;-0.70;99.90;;;-2.72;100.00;100992.50;5022215;27;99914;-66
2020/12/20 03:55:01;;;;;;;33.97;22.53;;;-0.80;99.90;;;-2.99;100.00;100989.13;5022507;27;100302;-65
2020/12/20 03:57:29;;;;;;;33.40;21.97;;;-0.60;99.90;;;-2.70;100.00;100983.66;5022521;27;100290;-66
2020/12/20 03:59:58;;;;;;;35.53;23.03;;;-0.60;99.90;;;-2.67;100.00;100977.44;5020579;27;102827;-67
2020/12/20 04:02:25;;;;;;;29.83;20.77;;;-0.60;99.90;;;-2.48;100.00;100978.47;5001916;27;102789;-65
2020/12/20 04:04:52;;;;;;;29.37;19.30;;;-0.80;99.90;;;-2.70;100.00;100982.81;5002013;27;100119;-65
2020/12/20 04:07:19;;;;;;;39.10;23.40;;;-0.80;99.90;;;-2.77;100.00;100986.56;5002356;27;100563;-66
2020/12/20 04:09:48;;;;;;;33.03;23.10;;;-0.70;99.90;;;-3.05;100.00;100995.44;5001286;27;102895;-66
2020/12/20 04:12:20;;;;;;;33.40;22.20;;;-0.70;99.90;;;-3.07;100.00;100994.63;5001564;27;100259;-65
2020/12/20 04:14:49;;;;;;;47.70;27.70;;;-0.70;99.90;;;-3.20;100.00;101009.06;5001249;27;100244;-64
2020/12/20 04:17:18;;;;;;;43.43;26.73;;;-1.00;99.90;;;-3.29;100.00;101012.84;5001887;27;100256;-66
2020/12/20 04:19:45;;;;;;;38.73;24.47;;;0.00;99.90;;;-3.27;100.00;101007.56;5001354;27;103656;-66
2020/12/20 04:22:28;;;;;;;38.30;24.60;;;-0.20;99.90;;;-3.54;100.00;101013.75;5003749;27;102323;-66
2020/12/20 04:25:17;;;;;;;36.93;24.17;;;-1.00;99.90;;;-3.27;100.00;101015.41;5008695;27;100226;-65
2020/12/20 04:28:04;;;;;;;31.27;21.20;;;-1.00;99.90;;;-3.09;100.00;101008.69;5009977;27;100318;-66
2020/12/20 04:30:32;;;;;;;37.47;24.67;;;-1.10;99.90;;;-3.30;100.00;101010.28;5008085;27;102676;-65
2020/12/20 04:33:05;;;;;;;36.00;23.77;;;-0.80;99.90;;;-3.38;100.00;101010.56;5008647;27;101653;-66
2020/12/20 04:35:35;;;;;;;37.50;24.47;;;-1.20;99.90;;;-3.40;100.00;101020.22;5008273;27;100200;-66
2020/12/20 04:38:02;;;;;;;36.60;23.53;;;-1.20;99.90;;;-3.44;100.00;101021.22;5009323;27;101358;-64
2020/12/20 04:40:37;;;;;;;36.73;22.97;;;-1.30;99.90;;;-3.36;100.00;101023.59;5007580;27;100523;-66
2020/12/20 04:43:07;;;;;;;32.83;22.13;;;-1.20;99.90;;;-3.54;100.00;101032.91;5008040;27;100618;-67
2020/12/20 04:45:36;;;;;;;35.20;23.63;;;-1.30;99.90;;;-3.61;100.00;101034.03;5008438;27;100141;-66
2020/12/20 04:48:11;;;;;;;34.17;21.93;;;-1.40;99.90;;;-3.70;100.00;101031.69;5008063;27;100221;-66
2020/12/20 04:50:54;;;;;;;28.97;19.97;;;-1.30;99.90;;;-3.61;100.00;101026.19;5007913;27;100903;-64
2020/12/20 04:53:24;;;;;;;36.60;24.03;;;-1.30;99.90;;;-3.61;100.00;101026.19;5008202;27;101318;-65
2020/12/20 04:56:05;;;;;;;38.13;24.87;;;-1.30;99.90;;;-3.70;100.00;101018.63;5008531;27;100218;-66
2020/12/20 04:59:11;;;;;;;33.80;23.23;;;-1.40;99.90;;;-3.72;100.00;101017.84;5000446;27;100236;-66
2020/12/20 05:02:02;;;;;;;30.93;21.50;;;-1.40;99.90;;;-3.30;100.00;101013.75;5008044;27;102633;-64
2020/12/20 05:04:30;;;;;;;35.10;22.90;;;-1.60;99.90;;;-3.66;100.00;101017.63;5008153;27;103528;-65
2020/12/20 05:06:58;;;;;;;32.47;21.83;;;-1.50;99.90;;;-3.53;100.00;101025.91;5008261;27;99862;-66
2020/12/20 05:10:27;;;;;;;38.33;24.80;;;-1.50;99.90;;;-3.28;100.00;101021.56;5005930;27;100348;-66
2020/12/20 05:12:54;;;;;;;40.37;24.50;;;-1.50;99.90;;;-2.88;100.00;101017.53;5008585;27;100498;-65
2020/12/20 05:15:26;;;;;;;40.03;24.77;;;-0.40;99.90;;;-2.80;100.00;101021.59;5008100;27;100349;-66
2020/12/20 05:18:10;;;;;;;44.83;26.97;;;-1.30;99.90;;;-2.75;100.00;101010.94;5008035;27;100153;-68
2020/12/20 05:20:45;;;;;;;38.20;25.70;;;-1.40;99.90;;;-3.04;100.00;101012.00;5008776;27;100157;-66
2020/12/20 05:23:16;;;;;;;39.83;24.33;;;-1.20;99.90;;;-2.26;100.00;101002.94;5007602;27;101900;-67
2020/12/20 05:25:44;;;;;;;43.90;26.87;;;-1.30;99.90;;;-2.46;100.00;101005.44;5033380;27;102060;-66
2020/12/20 05:28:14;;;;;;;34.17;22.50;;;-1.10;99.90;;;-2.12;100.00;101005.03;5007846;27;100091;-64
2020/12/20 05:30:47;;;;;;;40.10;24.20;;;-0.50;99.90;;;-2.04;100.00;101009.94;5042229;27;100051;-67
2020/12/20 05:33:43;;;;;;;38.23;23.73;;;-1.10;99.90;;;-1.82;100.00;100997.69;5017526;27;99963;-66
2020/12/20 05:36:34;;;;;;;37.80;23.30;;;-0.90;99.90;;;-1.89;100.00;100998.84;5024404;27;102057;-64
2020/12/20 05:39:16;;;;;;;44.50;25.77;;;-0.80;99.90;;;-2.43;100.00;101002.72;5004458;27;100137;-68
2020/12/20 05:41:49;;;;;;;38.07;23.97;;;-0.60;99.90;;;-2.01;100.00;100991.47;5004548;27;100039;-67
2020/12/20 05:44:19;;;;;;;33.17;21.77;;;-0.80;99.90;;;-1.80;100.00;101003.72;5021181;27;101814;-65
2020/12/20 05:46:49;;;;;;;38.17;21.50;;;-0.80;99.90;;;-1.85;100.00;101000.41;5020826;27;100092;-66
2020/12/20 05:49:24;;;;;;;34.83;22.83;;;-0.60;99.90;;;-1.80;100.00;100998.47;5021100;27;100409;-66
2020/12/20 05:52:06;;;;;;;36.20;22.53;;;-0.50;99.90;;;-1.96;100.00;100992.97;5021889;27;100561;-65
2020/12/20 05:54:35;;;;;;;35.63;22.37;;;-0.40;99.90;;;-1.92;100.00;100996.34;5010415;27;101774;-64
2020/12/20 05:57:10;;;;;;;33.43;21.30;;;-0.50;99.90;;;-2.05;100.00;100985.50;5026231;27;102375;-65
2020/12/20 05:59:39;;;;;;;32.20;19.97;;;-0.50;99.90;;;-2.03;100.00;100993.31;5025394;27;100199;-65
2020/12/20 06:02:07;;;;;;;30.43;20.20;;;-0.50;99.90;;;-2.20;100.00;100991.34;5012882;27;100192;-66
2020/12/20 06:04:37;;;;;;;30.63;19.43;;;-0.40;99.90;;;-2.17;100.00;100996.47;5005455;27;101491;-65
2020/12/20 06:07:07;;;;;;;33.10;20.03;;;-0.50;99.90;;;-2.48;100.00;101002.06;5005914;27;100447;-65
2020/12/20 06:09:45;;;;;;;31.17;19.20;;;-0.50;99.90;;;-2.69;100.00;100997.59;5005606;27;100055;-66
2020/12/20 06:12:22;;;;;;;30.13;19.30;;;-0.50;99.90;;;-2.90;100.00;100988.78;5003681;27;100275;-66
2020/12/20 06:14:50;;;;;;;27.37;17.70;;;-0.50;99.90;;;-2.76;100.00;101004.00;5005294;27;100722;-66
2020/12/20 06:17:20;;;;;;;27.17;19.27;;;-0.60;99.90;;;-2.97;100.00;101003.03;5026160;27;100326;-66
2020/12/20 06:19:55;;;;;;;26.77;18.17;;;-0.50;99.90;;;-3.05;100.00;101007.66;5025572;27;100018;-65
2020/12/20 06:22:28;;;;;;;31.70;19.93;;;-0.70;99.90;;;-3.26;100.00;101009.28;5025987;27;100085;-66
2020/12/20 06:24:59;;;;;;;25.70;17.70;;;-0.80;99.90;;;-3.33;100.00;101005.16;5024940;27;100679;-66
2020/12/20 06:27:29;;;;;;;27.67;19.97;;;-0.70;99.90;;;-3.46;100.00;101020.41;5025635;27;100947;-64
2020/12/20 06:29:58;;;;;;;24.90;17.43;;;-0.90;99.90;;;-3.43;100.00;101016.84;5026061;27;100265;-66
2020/12/20 06:32:33;;;;;;;26.37;17.37;;;-0.90;99.90;;;-3.46;100.00;101019.59;5023926;27;100290;-66
2020/12/20 06:35:12;;;;;;;26.10;17.80;;;-1.00;99.90;;;-3.52;100.00;101025.88;5038665;27;103265;-65
2020/12/20 06:37:42;;;;;;;28.70;19.37;;;-0.90;99.90;;;-3.50;100.00;101025.81;5018283;27;100820;-65
2020/12/20 06:40:13;;;;;;;35.37;22.27;;;-1.10;99.90;;;-3.48;100.00;101029.25;5004464;27;100220;-66
2020/12/20 06:42:42;;;;;;;30.97;20.43;;;-1.00;99.90;;;-3.51;100.00;101024.09;5005426;27;100173;-65
2020/12/20 06:45:14;;;;;;;42.53;29.83;;;-1.10;99.90;;;-3.59;100.00;101018.28;5010954;27;101365;-65
2020/12/20 06:47:42;;;;;;;37.53;26.50;;;-1.20;99.90;;;-3.60;100.00;101024.44;5023064;27;101366;-64
2020/12/20 06:50:10;;;;;;;31.53;20.50;;;-1.20;99.90;;;-3.58;100.00;101020.81;5022732;27;100355;-66
2020/12/20 06:52:48;;;;;;;30.10;20.20;;;-1.10;99.90;;;-3.50;100.00;101018.81;5026264;27;100012;-66
2020/12/20 06:55:17;;;;;;;32.80;21.60;;;-1.30;99.90;;;-3.59;100.00;101018.28;5029999;27;100326;-65
2020/12/20 06:58:13;;;;;;;27.20;19.17;;;-1.20;99.90;;;-3.45;100.00;101023.88;5030343;27;101329;-65
2020/12/20 07:00:43;;;;;;;32.17;21.23;;;-1.40;99.90;;;-3.46;100.00;101025.66;5021422;27;100145;-64
2020/12/20 07:03:11;;;;;;;31.43;20.40;;;-1.30;99.90;;;-3.47;100.00;101023.97;5005202;27;100127;-65
2020/12/20 07:05:44;;;;;;;27.73;18.77;;;-1.30;99.90;;;-3.45;100.00;101024.75;5004948;27;100720;-66
2020/12/20 07:08:19;;;;;;;30.13;20.10;;;-1.30;99.90;;;-3.46;100.00;101032.66;5005253;27;101299;-64
2020/12/20 07:11:21;;;;;;;33.80;20.27;;;-1.30;99.90;;;-3.40;100.00;101024.59;5004309;27;100301;-65
2020/12/20 07:13:51;;;;;;;30.73;19.97;;;-1.30;99.90;;;-3.42;100.00;101024.66;5019519;27;99960;-65
2020/12/20 07:16:23;;;;;;;31.27;21.70;;;-0.30;99.90;;;-3.31;100.00;101021.66;5025376;27;100649;-65
2020/12/20 07:18:58;;;;;;;34.67;22.07;;;-1.30;99.90;;;-3.20;100.00;101024.75;5023629;27;101302;-66
2020/12/20 07:22:01;;;;;;;32.00;21.07;;;-1.30;99.90;;;-2.96;100.00;101025.66;5024362;27;99892;-66
2020/12/20 07:24:31;;;;;;;33.60;21.77;;;-1.20;99.90;;;-2.86;100.00;101031.44;5023060;27;99926;-65
2020/12/20 07:27:01;;;;;;;31.90;22.00;;;-1.20;99.90;;;-2.56;100.00;101028.53;5022754;27;101494;-66
2020/12/20 07:29:30;;;;;;;36.83;23.30;;;-1.10;99.90;;;-2.38;100.00;101031.38;5023942;27;101388;-64
2020/12/20 07:32:00;;;;;;;34.80;23.10;;;-0.40;99.90;;;-2.31;100.00;101023.22;5023866;27;99651;-65
2020/12/20 07:34:27;;;;;;;33.23;22.13;;;-0.70;99.90;;;-2.54;100.00;101031.97;5023495;27;99979;-67
2020/12/20 07:36:56;;;;;;;28.77;20.40;;;-0.60;99.90;;;-2.14;100.00;101030.44;5021175;27;100561;-65
2020/12/20 07:39:24;;;;;;;28.73;20.40;;;-0.40;99.90;;;-1.90;100.00;101032.09;5000717;27;102796;-65
2020/12/20 07:41:51;;;;;;;25.97;17.60;;;-0.80;99.90;;;-1.69;100.00;101025.13;5016931;27;99972;-68
2020/12/20 07:44:21;;;;;;;30.87;19.50;;;0.10;99.90;;;-1.58;100.00;101028.16;5022925;27;100190;-67
2020/12/20 07:46:48;;;;;;;23.33;16.20;;;0.30;99.90;;;-1.34;100.00;101023.66;5022017;27;101766;-67
2020/12/20 07:49:16;;;;;;;22.37;16.73;;;0.50;99.90;;;-1.23;100.00;101023.19;5022722;27;100644;-67
2020/12/20 07:51:43;;;;;;;24.40;17.00;;;0.70;99.90;;;-1.19;100.00;101017.75;5021850;27;100086;-67
2020/12/20 07:54:13;;;;;;;27.00;15.70;;;2.10;99.90;;;-0.87;100.00;101013.75;5002262;27;100284;-66
2020/12/20 07:56:42;;;;;;;20.93;15.20;;;1.10;99.90;;;-0.92;100.00;101018.31;5001327;27;100900;-66
2020/12/20 07:59:11;;;;;;;19.00;13.57;;;2.40;99.90;;;-0.84;100.00;101017.97;5001604;27;100262;-67
2020/12/20 08:01:40;;;;;;;18.03;14.13;;;1.70;99.90;;;-0.80;100.00;101012.53;5015783;27;100379;-67
2020/12/20 08:04:09;;;;;;;17.17;13.83;;;2.10;99.90;;;-0.58;100.00;101007.16;5020680;27;100035;-66
2020/12/20 08:06:39;;;;;;;16.30;13.63;;;2.20;99.90;;;-0.77;100.00;101007.13;5021184;27;100893;-67
2020/12/20 08:09:12;;;;;;;18.73;14.23;;;2.20;99.90;;;-0.77;100.00;101006.28;5021991;27;100488;-67
2020/12/20 08:11:40;;;;;;;15.43;12.67;;;2.30;99.90;;;-0.65;100.00;101005.72;5003317;27;100071;-67
2020/12/20 08:14:09;;;;;;;17.60;12.43;;;2.50;99.90;;;-0.52;100.00;101006.88;5003551;27;99869;-67
2020/12/20 08:16:38;;;;;;;14.20;11.47;;;2.60;99.90;;;-0.32;100.00;101012.97;5001982;27;100991;-68
2020/12/20 08:19:07;;;;;;;19.07;15.87;;;3.80;99.90;;;-0.56;100.00;101007.94;5003892;27;99787;-66
2020/12/20 08:21:47;;;;;;;17.93;15.90;;;3.60;99.90;;;-0.50;100.00;101007.66;5001448;27;99974;-66
2020/12/20 08:24:18;;;;;;;15.47;13.03;;;2.80;99.90;;;-0.43;100.00;101009.09;5000369;27;100424;-65
2020/12/20 08:26:45;;;;;;;16.47;11.70;;;2.90;99.90;;;-0.19;100.00;101007.06;5001878;27;100985;-68
2020/12/20 08:29:15;;;;;;;12.97;10.73;;;2.90;99.90;;;-0.07;100.00;101008.28;5001459;27;99854;-67
2020/12/20 08:31:42;;;;;;;14.07;10.50;;;3.00;99.90;;;-0.02;100.00;101012.41;5001255;27;99966;-68
2020/12/20 08:34:21;;;;;;;12.90;10.53;;;2.90;99.90;;;0.10;100.00;101008.31;5001563;27;99867;-68
2020/12/20 08:36:50;;;;;;;13.13;10.70;;;2.80;99.90;;;0.09;100.00;101008.41;5001046;27;101494;-67
2020/12/20 08:39:22;;;;;;;12.33;11.03;;;2.80;99.90;;;0.11;100.00;101011.81;5020111;27;101137;-67
2020/12/20 08:42:01;;;;;;;13.80;11.27;;;2.80;99.90;;;0.21;100.00;101013.91;5022012;27;100347;-67
2020/12/20 08:44:29;;;;;;;11.23;9.20;;;2.80;99.90;;;0.39;100.00;101004.25;5021667;27;100368;-67
2020/12/20 08:47:10;;;;;;;12.73;11.03;;;2.90;99.90;;;0.60;100.00;101003.19;5020598;27;101447;-66
2020/12/20 08:49:37;;;;;;;13.53;10.83;;;2.90;99.90;;;0.92;100.00;101001.53;5022036;27;100900;-66
2020/12/20 08:52:13;;;;;;;10.43;8.90;;;3.10;99.90;;;1.17;100.00;101001.09;5021566;27;100172;-66
2020/12/20 08:54:41;;;;;;;10.20;9.10;;;3.40;99.90;;;1.49;100.00;100999.38;5021654;27;100062;-66
2020/12/20 08:57:10;;;;;;;9.60;8.60;;;3.90;99.90;;;1.59;100.00;100997.09;5020870;27;101575;-65
2020/12/20 08:59:40;;;;;;;10.20;9.17;;;4.20;99.90;;;1.52;100.00;100995.72;5021224;27;100035;-65
2020/12/20 09:02:09;;;;;;;10.80;8.57;;;4.40;99.90;;;1.72;100.00;100996.34;5021492;27;99962;-66
2020/12/20 09:04:37;;;;;;;9.30;8.17;;;4.70;99.90;;;1.84;100.00;100989.53;5020113;27;100061;-64
2020/12/20 09:07:14;;;;;;;8.77;7.87;;;4.80;99.90;;;1.93;100.00;100994.28;5021874;27;99911;-68
2020/12/20 09:09:42;;;;;;;8.97;7.83;;;5.20;99.90;;;2.01;100.00;100993.84;5023732;27;100315;-66
2020/12/20 09:12:20;;;;;;;8.63;7.83;;;5.40;99.90;;;2.26;100.00;101004.72;5010947;27;100384;-66
2020/12/20 09:15:01;;;;;;;8.73;7.83;;;5.60;99.90;;;2.14;100.00;101006.28;5010749;27;100245;-67
2020/12/20 09:17:32;;;;;;;8.30;7.50;;;5.70;99.90;;;2.21;100.00;101011.22;5024749;27;101556;-67
2020/12/20 09:19:59;;;;;;;9.17;7.77;;;5.70;99.90;;;2.22;100.00;101010.28;5022608;27;101188;-67
2020/12/20 09:22:48;;;;;;;8.10;7.27;;;5.80;99.90;;;2.17;100.00;101007.91;5021908;27;100238;-66
2020/12/20 09:25:28;;;;;;;9.67;7.80;;;5.80;99.90;;;2.12;100.00;101005.50;5017477;27;100107;-66
2020/12/20 09:27:58;;;;;;;7.50;6.73;;;5.90;99.90;;;2.08;100.00;101006.63;5037079;27;100693;-65
2020/12/20 09:30:43;;;;;;;7.50;6.80;;;5.80;99.90;;;2.09;100.00;100999.56;5024572;27;100778;-67
2020/12/20 09:33:26;;;;;;;8.10;7.30;;;5.60;99.90;;;2.22;100.00;101003.22;5025069;27;100078;-65
2020/12/20 09:35:59;;;;;;;7.77;6.70;;;6.70;99.90;;;2.18;100.00;100999.03;5024130;27;100441;-67
2020/12/20 09:38:29;;;;;;;7.67;6.87;;;5.50;99.90;;;2.19;100.00;100984.91;5019758;27;101280;-66
2020/12/20 09:41:03;;;;;;;8.20;7.40;;;5.60;99.90;;;2.24;100.00;100990.75;5005994;27;100302;-66
2020/12/20 09:43:31;;;;;;;9.77;8.03;;;5.50;99.90;;;2.31;100.00;100986.84;5021362;27;100034;-67
2020/12/20 09:45:59;;;;;;;9.43;7.10;;;5.50;99.90;;;2.38;100.00;100988.16;5014116;27;100102;-66
2020/12/20 09:48:26;;;;;;;8.27;7.27;;;5.50;99.90;;;2.42;100.00;100970.38;5005073;27;100797;-65
2020/12/20 09:50:53;;;;;;;6.60;6.00;;;5.60;99.90;;;2.45;100.00;100973.69;5016054;27;100547;-66
2020/12/20 09:53:19;;;;;;;7.60;6.53;;;5.50;99.90;;;2.46;100.00;100971.91;5012901;27;100961;-67
2020/12/20 09:55:46;;;;;;;6.20;5.60;;;5.60;99.90;;;2.53;100.00;100970.56;5004207;27;99996;-67
2020/12/20 09:58:15;;;;;;;11.00;6.90;;;5.70;99.90;;;2.70;100.00;100965.16;5004169;27;100903;-66
2020/12/20 10:00:43;;;;;;;10.23;7.13;;;5.70;99.90;;;2.80;100.00;100970.75;5016459;27;100297;-67
2020/12/20 10:03:11;;;;;;;10.30;7.77;;;5.80;99.90;;;2.86;100.00;100980.94;5021322;27;100227;-66
2020/12/20 10:05:42;;;;;;;7.67;6.30;;;5.90;99.90;;;2.77;100.00;100974.41;5010296;27;100286;-65
2020/12/20 10:08:09;;;;;;;8.87;6.63;;;6.60;99.90;;;2.81;100.00;100975.09;5021769;27;101421;-66
2020/12/20 10:10:36;;;;;;;7.30;5.63;;;5.90;99.90;;;2.83;100.00;100970.56;5023724;27;101132;-67
2020/12/20 10:13:03;;;;;;;6.43;5.80;;;6.30;99.90;;;2.79;100.00;100955.81;5022769;27;100005;-67